createdAt,value
2018-11-23T00:00:39.407Z,38.80
2018-11-23T00:01:39.357Z,35.90
2018-11-23T00:02:39.372Z,35.80
2018-11-23T00:03:39.330Z,35.80
2018-11-23T00:04:39.320Z,35.90
2018-11-23T00:05:39.329Z,37.20
2018-11-23T00:06:39.301Z,34.20
2018-11-23T00:07:39.286Z,38.10
2018-11-23T00:08:39.275Z,35.40
2018-11-23T00:09:39.290Z,34.20
2018-11-23T00:10:39.279Z,38.80
2018-11-23T00:11:39.245Z,35.90
2018-11-23T00:12:39.233Z,33.20
2018-11-23T00:13:39.245Z,38.10
2018-11-23T00:14:39.207Z,36.00
2018-11-23T00:15:39.228Z,36.80
2018-11-23T00:16:39.187Z,37.20
2018-11-23T00:17:39.180Z,36.50
2018-11-23T00:18:39.200Z,34.20
2018-11-23T00:19:39.156Z,34.30
2018-11-23T00:20:46.932Z,34.70
2018-11-23T00:21:39.131Z,34.50
2018-11-23T00:22:39.127Z,35.20
2018-11-23T00:23:39.116Z,35.00
2018-11-23T00:24:39.114Z,35.80
2018-11-23T00:25:39.128Z,38.00
2018-11-23T00:26:39.084Z,36.80
2018-11-23T00:27:46.609Z,35.20
2018-11-23T00:28:39.060Z,36.10
2018-11-23T00:29:39.050Z,37.80
2018-11-23T00:30:39.079Z,36.30
2018-11-23T00:31:39.025Z,37.10
2018-11-23T00:32:39.012Z,37.00
2018-11-23T00:33:39.005Z,36.20
2018-11-23T00:34:46.563Z,35.50
2018-11-23T00:35:39.002Z,35.90
2018-11-23T00:36:38.975Z,36.50
2018-11-23T00:37:47.523Z,35.30
2018-11-23T00:38:46.504Z,35.60
2018-11-23T00:39:46.484Z,38.70
2018-11-23T00:40:47.621Z,37.10
2018-11-23T00:41:47.473Z,36.50
2018-11-23T00:42:38.906Z,35.80
2018-11-23T00:43:47.716Z,38.80
2018-11-23T00:44:38.885Z,36.70
2018-11-23T00:45:43.065Z,34.30
2018-11-23T00:46:38.869Z,37.80
2018-11-23T00:47:48.513Z,36.00
2018-11-23T00:48:38.872Z,40.80
2018-11-23T00:49:38.862Z,35.20
2018-11-23T00:50:38.912Z,37.00
2018-11-23T00:51:38.812Z,38.60
2018-11-23T00:52:38.811Z,33.70
2018-11-23T00:53:38.794Z,37.10
2018-11-23T00:54:38.782Z,35.70
2018-11-23T00:55:38.789Z,37.20
2018-11-23T00:56:38.757Z,37.60
2018-11-23T00:57:38.750Z,35.70
2018-11-23T00:58:38.744Z,35.30
2018-11-23T00:59:38.728Z,37.20
2018-11-23T01:00:38.738Z,38.00
2018-11-23T01:01:38.710Z,41.00
2018-11-23T01:02:38.697Z,37.40
2018-11-23T01:03:38.691Z,35.50
2018-11-23T01:04:38.683Z,35.60
2018-11-23T01:05:38.697Z,36.70
2018-11-23T01:06:38.653Z,36.00
2018-11-23T01:07:38.687Z,37.60
2018-11-23T01:08:38.636Z,36.20
2018-11-23T01:09:38.624Z,39.40
2018-11-23T01:10:38.637Z,37.50
2018-11-23T01:11:38.607Z,36.20
2018-11-23T01:12:38.605Z,38.30
2018-11-23T01:13:38.579Z,35.30
2018-11-23T01:14:38.578Z,36.10
2018-11-23T01:15:38.607Z,37.10
2018-11-23T01:16:38.555Z,34.20
2018-11-23T01:17:38.540Z,34.70
2018-11-23T01:18:38.526Z,37.10
2018-11-23T01:19:38.512Z,38.80
2018-11-23T01:20:38.529Z,40.80
2018-11-23T01:21:38.523Z,36.30
2018-11-23T01:22:38.481Z,36.20
2018-11-23T01:23:38.471Z,38.20
2018-11-23T01:24:38.458Z,36.30
2018-11-23T01:25:38.476Z,34.80
2018-11-23T01:26:38.435Z,36.30
2018-11-23T01:27:38.473Z,37.60
2018-11-23T01:28:38.417Z,35.80
2018-11-23T01:29:38.412Z,38.00
2018-11-23T01:30:38.446Z,39.50
2018-11-23T01:31:38.420Z,34.70
2018-11-23T01:32:38.376Z,35.10
2018-11-23T01:33:38.365Z,39.00
2018-11-23T01:34:38.378Z,37.00
2018-11-23T01:35:38.362Z,38.40
2018-11-23T01:36:38.333Z,38.80
2018-11-23T01:37:38.331Z,35.40
2018-11-23T01:38:38.331Z,39.80
2018-11-23T01:39:38.297Z,35.00
2018-11-23T01:40:38.808Z,36.70
2018-11-23T01:41:38.292Z,38.10
2018-11-23T01:42:38.275Z,39.30
2018-11-23T01:43:38.252Z,39.40
2018-11-23T01:44:38.243Z,37.00
2018-11-23T01:45:38.233Z,36.20
2018-11-23T01:46:38.274Z,37.90
2018-11-23T01:47:38.210Z,38.50
2018-11-23T01:48:38.203Z,36.00
2018-11-23T01:49:38.195Z,33.00
2018-11-23T01:50:38.207Z,36.30
2018-11-23T01:51:38.194Z,37.50
2018-11-23T01:52:38.203Z,37.30
2018-11-23T01:53:38.147Z,37.40
2018-11-23T01:54:38.143Z,36.70
2018-11-23T01:55:38.123Z,36.70
2018-11-23T01:56:38.162Z,39.50
2018-11-23T01:57:38.104Z,40.50
2018-11-23T01:58:38.096Z,36.90
2018-11-23T01:59:38.083Z,37.80
2018-11-23T02:00:38.085Z,37.90
2018-11-23T02:01:38.088Z,36.20
2018-11-23T02:02:38.071Z,36.40
2018-11-23T02:03:38.044Z,36.50
2018-11-23T02:04:38.032Z,37.80
2018-11-23T02:05:38.064Z,37.20
2018-11-23T02:06:38.010Z,36.50
2018-11-23T02:07:38.018Z,39.80
2018-11-23T02:08:38.018Z,35.80
2018-11-23T02:09:37.982Z,38.90
2018-11-23T02:10:37.967Z,37.30
2018-11-23T02:11:38.085Z,41.30
2018-11-23T02:12:37.964Z,40.30
2018-11-23T02:13:37.935Z,38.10
2018-11-23T02:14:37.926Z,39.50
2018-11-23T02:15:37.919Z,37.30
2018-11-23T02:16:37.905Z,36.80
2018-11-23T02:17:37.910Z,40.70
2018-11-23T02:18:37.878Z,37.50
2018-11-23T02:19:37.872Z,37.60
2018-11-23T02:20:37.862Z,36.60
2018-11-23T02:21:37.849Z,35.30
2018-11-23T02:22:37.861Z,38.50
2018-11-23T02:23:37.825Z,37.90
2018-11-23T02:24:37.822Z,36.90
2018-11-23T02:25:37.817Z,39.60
2018-11-23T02:26:37.794Z,40.20
2018-11-23T02:27:37.810Z,37.80
2018-11-23T02:28:37.805Z,38.60
2018-11-23T02:29:37.760Z,37.00
2018-11-23T02:30:37.760Z,37.20
2018-11-23T02:31:37.741Z,37.40
2018-11-23T02:32:37.767Z,40.70
2018-11-23T02:33:37.716Z,40.00
2018-11-23T02:34:37.716Z,37.80
2018-11-23T02:35:37.693Z,40.80
2018-11-23T02:36:37.687Z,38.50
2018-11-23T02:37:37.673Z,38.90
2018-11-23T02:38:37.681Z,38.80
2018-11-23T02:39:37.659Z,36.70
2018-11-23T02:40:37.645Z,35.90
2018-11-23T02:41:37.676Z,42.70
2018-11-23T02:42:37.646Z,41.10
2018-11-23T02:43:37.608Z,39.70
2018-11-23T02:44:37.598Z,39.00
2018-11-23T02:45:37.590Z,38.50
2018-11-23T02:46:37.577Z,38.10
2018-11-23T02:47:37.616Z,37.30
2018-11-23T02:48:37.584Z,37.40
2018-11-23T02:49:37.548Z,39.10
2018-11-23T02:50:37.562Z,39.00
2018-11-23T02:51:37.523Z,39.00
2018-11-23T02:52:37.517Z,38.00
2018-11-23T02:53:37.518Z,37.20
2018-11-23T02:54:37.488Z,37.30
2018-11-23T02:55:37.484Z,36.60
2018-11-23T02:56:37.475Z,39.30
2018-11-23T02:57:37.485Z,40.40
2018-11-23T02:58:37.453Z,38.30
2018-11-23T02:59:37.467Z,39.00
2018-11-23T03:00:37.439Z,39.00
2018-11-23T03:01:37.422Z,38.30
2018-11-23T03:02:37.431Z,37.90
2018-11-23T03:03:37.395Z,36.60
2018-11-23T03:04:37.385Z,35.30
2018-11-23T03:05:37.397Z,42.30
2018-11-23T03:06:37.365Z,38.80
2018-11-23T03:07:37.352Z,35.80
2018-11-23T03:08:37.361Z,38.10
2018-11-23T03:09:37.323Z,40.10
2018-11-23T03:10:37.313Z,36.10
2018-11-23T03:11:37.316Z,38.70
2018-11-23T03:12:37.310Z,41.10
2018-11-23T03:13:37.304Z,40.20
2018-11-23T03:14:37.278Z,38.80
2018-11-23T03:15:37.275Z,38.20
2018-11-23T03:16:37.269Z,37.80
2018-11-23T03:17:37.274Z,37.20
2018-11-23T03:18:37.261Z,39.70
2018-11-23T03:19:37.221Z,37.60
2018-11-23T03:20:37.213Z,37.80
2018-11-23T03:21:37.236Z,37.50
2018-11-23T03:22:37.187Z,39.90
2018-11-23T03:23:37.185Z,42.20
2018-11-23T03:24:37.191Z,36.70
2018-11-23T03:25:37.155Z,37.80
2018-11-23T03:26:37.148Z,41.20
2018-11-23T03:27:37.139Z,40.60
2018-11-23T03:28:37.139Z,37.50
2018-11-23T03:29:37.133Z,39.90
2018-11-23T03:30:37.160Z,38.70
2018-11-23T03:31:37.098Z,41.70
2018-11-23T03:32:37.078Z,40.20
2018-11-23T03:33:37.079Z,37.00
2018-11-23T03:34:37.118Z,39.90
2018-11-23T03:35:37.049Z,40.00
2018-11-23T03:36:37.046Z,39.30
2018-11-23T03:37:37.028Z,41.20
2018-11-23T03:38:37.024Z,37.80
2018-11-23T03:39:37.024Z,40.20
2018-11-23T03:40:36.992Z,39.80
2018-11-23T03:41:36.989Z,38.60
2018-11-23T03:42:36.980Z,37.80
2018-11-23T03:43:36.967Z,40.40
2018-11-23T03:44:36.978Z,41.80
2018-11-23T03:45:36.945Z,39.10
2018-11-23T03:46:36.935Z,41.20
2018-11-23T03:47:36.939Z,37.70
2018-11-23T03:48:36.911Z,36.80
2018-11-23T03:49:36.918Z,42.00
2018-11-23T03:50:36.886Z,42.10
2018-11-23T03:51:36.884Z,41.20
2018-11-23T03:52:36.875Z,40.40
2018-11-23T03:53:36.878Z,41.50
2018-11-23T03:54:36.870Z,40.30
2018-11-23T03:55:36.847Z,40.60
2018-11-23T03:56:36.827Z,38.20
2018-11-23T03:57:36.844Z,41.30
2018-11-23T03:58:36.838Z,37.20
2018-11-23T03:59:36.793Z,41.90
2018-11-23T04:00:36.807Z,41.10
2018-11-23T04:01:36.774Z,43.50
2018-11-23T04:02:36.767Z,42.20
2018-11-23T04:03:36.753Z,39.80
2018-11-23T04:04:36.781Z,37.70
2018-11-23T04:05:36.777Z,38.80
2018-11-23T04:06:36.751Z,40.40
2018-11-23T04:07:36.706Z,42.50
2018-11-23T04:08:36.704Z,43.90
2018-11-23T04:09:36.687Z,38.70
2018-11-23T04:10:36.708Z,40.00
2018-11-23T04:11:36.723Z,38.90
2018-11-23T04:12:36.665Z,42.60
2018-11-23T04:13:36.642Z,40.90
2018-11-23T04:14:36.691Z,41.60
2018-11-23T04:15:36.662Z,36.90
2018-11-23T04:16:36.645Z,39.20
2018-11-23T04:17:36.637Z,39.10
2018-11-23T04:18:36.594Z,41.90
2018-11-23T04:19:36.584Z,41.20
2018-11-23T04:20:36.570Z,41.80
2018-11-23T04:21:36.581Z,39.70
2018-11-23T04:22:36.584Z,39.00
2018-11-23T04:23:36.540Z,38.00
2018-11-23T04:24:36.550Z,41.30
2018-11-23T04:25:36.547Z,39.60
2018-11-23T04:26:36.533Z,40.90
2018-11-23T04:27:36.545Z,39.20
2018-11-23T04:28:36.483Z,40.80
2018-11-23T04:29:36.468Z,39.50
2018-11-23T04:30:36.465Z,42.30
2018-11-23T04:31:36.463Z,43.20
2018-11-23T04:32:36.437Z,40.10
2018-11-23T04:33:36.434Z,41.30
2018-11-23T04:34:36.421Z,39.20
2018-11-23T04:35:36.403Z,37.80
2018-11-23T04:36:36.418Z,39.10
2018-11-23T04:37:36.389Z,39.30
2018-11-23T04:38:36.379Z,43.90
2018-11-23T04:39:36.369Z,38.10
2018-11-23T04:40:36.355Z,42.00
2018-11-23T04:41:36.364Z,40.80
2018-11-23T04:42:36.335Z,37.40
2018-11-23T04:43:36.327Z,39.10
2018-11-23T04:44:36.316Z,39.50
2018-11-23T04:45:36.301Z,41.50
2018-11-23T04:46:36.307Z,40.30
2018-11-23T04:47:36.278Z,40.60
2018-11-23T04:48:36.275Z,37.40
2018-11-23T04:49:36.256Z,37.00
2018-11-23T04:50:36.247Z,44.90
2018-11-23T04:51:36.258Z,41.00
2018-11-23T04:52:36.224Z,41.50
2018-11-23T04:53:36.215Z,40.00
2018-11-23T04:54:36.211Z,37.40
2018-11-23T04:55:36.197Z,40.90
2018-11-23T04:56:36.207Z,39.40
2018-11-23T04:57:36.174Z,38.30
2018-11-23T04:58:36.163Z,40.00
2018-11-23T04:59:36.153Z,40.40
2018-11-23T05:00:36.155Z,42.50
2018-11-23T05:01:36.151Z,39.80
2018-11-23T05:02:36.129Z,40.40
2018-11-23T05:03:36.112Z,36.50
2018-11-23T05:04:36.104Z,40.40
2018-11-23T05:05:36.091Z,39.80
2018-11-23T05:06:36.120Z,40.30
2018-11-23T05:07:36.071Z,36.90
2018-11-23T05:08:36.084Z,40.40
2018-11-23T05:09:36.053Z,41.00
2018-11-23T05:10:36.037Z,41.80
2018-11-23T05:11:36.086Z,39.90
2018-11-23T05:12:36.082Z,38.00
2018-11-23T05:13:36.045Z,41.40
2018-11-23T05:14:35.997Z,36.60
2018-11-23T05:15:35.987Z,41.20
2018-11-23T05:16:36.008Z,43.20
2018-11-23T05:17:35.983Z,39.90
2018-11-23T05:18:35.954Z,41.30
2018-11-23T05:19:35.997Z,39.40
2018-11-23T05:20:35.938Z,41.00
2018-11-23T05:21:35.931Z,39.40
2018-11-23T05:22:35.979Z,38.80
2018-11-23T05:23:35.910Z,39.80
2018-11-23T05:24:35.926Z,40.90
2018-11-23T05:25:35.885Z,41.40
2018-11-23T05:26:35.887Z,37.50
2018-11-23T05:27:35.862Z,39.80
2018-11-23T05:28:35.892Z,38.90
2018-11-23T05:29:35.850Z,40.90
2018-11-23T05:30:35.872Z,37.10
2018-11-23T05:31:35.851Z,40.40
2018-11-23T05:32:35.810Z,43.40
2018-11-23T05:33:35.867Z,40.80
2018-11-23T05:34:35.784Z,43.60
2018-11-23T05:35:35.773Z,42.60
2018-11-23T05:36:35.762Z,39.80
2018-11-23T05:37:35.826Z,35.50
2018-11-23T05:38:35.763Z,40.00
2018-11-23T05:39:35.731Z,40.40
2018-11-23T05:40:35.734Z,38.60
2018-11-23T05:41:35.717Z,42.80
2018-11-23T05:42:35.699Z,41.90
2018-11-23T05:43:35.713Z,38.10
2018-11-23T05:44:35.678Z,40.40
2018-11-23T05:45:35.674Z,38.60
2018-11-23T05:46:35.656Z,40.40
2018-11-23T05:47:35.650Z,42.20
2018-11-23T05:48:35.702Z,36.90
2018-11-23T05:49:35.644Z,44.50
2018-11-23T05:50:35.610Z,43.50
2018-11-23T05:51:35.604Z,40.70
2018-11-23T05:52:35.619Z,40.50
2018-11-23T05:53:35.616Z,40.50
2018-11-23T05:54:35.571Z,42.40
2018-11-23T05:55:35.559Z,41.80
2018-11-23T05:56:35.557Z,40.90
2018-11-23T05:57:35.540Z,41.00
2018-11-23T05:58:35.548Z,39.60
2018-11-23T05:59:35.518Z,42.40
2018-11-23T06:00:35.511Z,44.50
2018-11-23T06:01:35.549Z,43.90
2018-11-23T06:02:35.487Z,40.40
2018-11-23T06:03:35.496Z,43.60
2018-11-23T06:04:35.498Z,40.90
2018-11-23T06:05:35.457Z,40.50
2018-11-23T06:06:42.003Z,44.10
2018-11-23T06:07:36.429Z,41.70
2018-11-23T06:08:35.440Z,41.40
2018-11-23T06:09:35.410Z,41.60
2018-11-23T06:10:35.408Z,41.10
2018-11-23T06:11:35.390Z,40.20
2018-11-23T06:12:35.381Z,40.70
2018-11-23T06:13:35.394Z,41.70
2018-11-23T06:14:35.354Z,44.10
2018-11-23T06:15:35.360Z,43.10
2018-11-23T06:16:35.346Z,42.90
2018-11-23T06:17:35.328Z,38.20
2018-11-23T06:18:35.332Z,44.10
2018-11-23T06:19:35.300Z,40.00
2018-11-23T06:20:35.294Z,38.30
2018-11-23T06:21:35.287Z,40.90
2018-11-23T06:22:35.277Z,41.90
2018-11-23T06:23:35.279Z,44.20
2018-11-23T06:24:35.254Z,38.70
2018-11-23T06:25:35.236Z,42.90
2018-11-23T06:26:35.228Z,42.80
2018-11-23T06:27:35.222Z,40.50
2018-11-23T06:28:35.228Z,45.90
2018-11-23T06:29:35.207Z,42.30
2018-11-23T06:30:35.183Z,42.10
2018-11-23T06:31:35.171Z,43.90
2018-11-23T06:32:35.164Z,41.20
2018-11-23T06:33:35.171Z,41.70
2018-11-23T06:34:35.147Z,41.60
2018-11-23T06:35:35.143Z,43.30
2018-11-23T06:36:35.128Z,41.30
2018-11-23T06:37:35.111Z,40.90
2018-11-23T06:38:35.116Z,39.10
2018-11-23T06:39:35.091Z,41.90
2018-11-23T06:40:35.081Z,41.20
2018-11-23T06:41:35.068Z,46.20
2018-11-23T06:42:41.965Z,40.80
2018-11-23T06:43:36.043Z,36.80
2018-11-23T06:44:35.035Z,47.00
2018-11-23T06:45:35.042Z,37.80
2018-11-23T06:46:35.016Z,38.20
2018-11-23T06:47:44.726Z,40.00
2018-11-23T06:48:34.994Z,45.80
2018-11-23T06:49:34.982Z,41.40
2018-11-23T06:50:34.967Z,43.00
2018-11-23T06:51:34.957Z,41.60
2018-11-23T06:52:34.945Z,42.20
2018-11-23T06:53:34.959Z,41.50
2018-11-23T06:54:35.075Z,40.80
2018-11-23T06:55:35.118Z,42.50
2018-11-23T06:56:34.970Z,38.00
2018-11-23T06:57:34.941Z,40.90
2018-11-23T06:58:34.906Z,41.20
2018-11-23T06:59:34.872Z,41.10
2018-11-23T07:00:34.918Z,42.50
2018-11-23T07:01:34.857Z,42.90
2018-11-23T07:02:34.840Z,40.70
2018-11-23T07:03:34.853Z,36.50
2018-11-23T07:04:34.821Z,42.30
2018-11-23T07:05:34.812Z,40.60
2018-11-23T07:06:34.800Z,38.20
2018-11-23T07:07:35.749Z,40.60
2018-11-23T07:08:34.804Z,41.80
2018-11-23T07:09:34.773Z,40.70
2018-11-23T07:10:34.756Z,42.10
2018-11-23T07:11:34.755Z,45.50
2018-11-23T07:12:34.734Z,42.60
2018-11-23T07:13:34.740Z,42.20
2018-11-23T07:14:34.713Z,41.00
2018-11-23T07:15:34.706Z,42.10
2018-11-23T07:16:34.697Z,43.20
2018-11-23T07:17:34.681Z,39.70
2018-11-23T07:18:34.721Z,39.40
2018-11-23T07:19:34.663Z,40.50
2018-11-23T07:20:34.659Z,40.90
2018-11-23T07:21:34.642Z,41.10
2018-11-23T07:22:34.641Z,37.60
2018-11-23T07:23:34.618Z,44.30
2018-11-23T07:24:34.624Z,43.90
2018-11-23T07:25:34.612Z,41.30
2018-11-23T07:26:34.603Z,44.20
2018-11-23T07:27:34.582Z,43.20
2018-11-23T07:28:34.568Z,39.20
2018-11-23T07:29:34.577Z,43.20
2018-11-23T07:30:34.548Z,41.30
2018-11-23T07:31:34.536Z,40.10
2018-11-23T07:32:34.538Z,39.00
2018-11-23T07:33:34.516Z,41.40
2018-11-23T07:34:34.536Z,40.70
2018-11-23T07:35:34.526Z,39.60
2018-11-23T07:36:34.511Z,39.70
2018-11-23T07:37:34.482Z,41.80
2018-11-23T07:38:34.498Z,41.60
2018-11-23T07:39:34.449Z,41.20
2018-11-23T07:40:34.460Z,38.70
2018-11-23T07:41:34.441Z,42.70
2018-11-23T07:42:34.418Z,43.90
2018-11-23T07:43:34.405Z,40.50
2018-11-23T07:44:34.396Z,39.40
2018-11-23T07:45:34.417Z,42.60
2018-11-23T07:46:34.374Z,40.70
2018-11-23T07:47:34.363Z,40.10
2018-11-23T07:48:34.359Z,39.20
2018-11-23T07:49:34.355Z,41.40
2018-11-23T07:50:34.356Z,41.40
2018-11-23T07:51:39.054Z,40.90
2018-11-23T07:52:35.329Z,40.00
2018-11-23T07:53:34.295Z,40.10
2018-11-23T07:54:34.295Z,42.30
2018-11-23T07:55:34.328Z,39.40
2018-11-23T07:56:34.267Z,41.30
2018-11-23T07:57:34.260Z,40.90
2018-11-23T07:58:34.252Z,40.30
2018-11-23T07:59:34.237Z,42.40
2018-11-23T08:00:34.253Z,41.90
2018-11-23T08:01:34.233Z,41.10
2018-11-23T08:02:34.301Z,41.80
2018-11-23T08:03:34.205Z,41.20
2018-11-23T08:04:34.186Z,41.00
2018-11-23T08:05:34.214Z,41.00
2018-11-23T08:06:34.186Z,43.60
2018-11-23T08:07:34.148Z,41.30
2018-11-23T08:08:34.144Z,41.00
2018-11-23T08:09:34.148Z,37.30
2018-11-23T08:10:34.125Z,40.90
2018-11-23T08:11:34.133Z,40.50
2018-11-23T08:12:34.105Z,40.10
2018-11-23T08:13:34.128Z,41.90
2018-11-23T08:14:34.130Z,43.00
2018-11-23T08:15:34.151Z,42.90
2018-11-23T08:16:34.076Z,40.50
2018-11-23T08:17:34.089Z,40.80
2018-11-23T08:18:34.056Z,43.70
2018-11-23T08:19:34.036Z,45.20
2018-11-23T08:20:42.570Z,42.40
2018-11-23T08:21:34.029Z,42.60
2018-11-23T08:22:33.987Z,39.20
2018-11-23T08:23:33.994Z,38.50
2018-11-23T08:24:33.972Z,38.10
2018-11-23T08:25:33.961Z,40.00
2018-11-23T08:26:33.982Z,42.00
2018-11-23T08:27:33.942Z,39.50
2018-11-23T08:28:33.961Z,39.30
2018-11-23T08:29:33.923Z,39.20
2018-11-23T08:30:33.909Z,41.30
2018-11-23T08:31:33.893Z,42.20
2018-11-23T08:32:33.925Z,41.10
2018-11-23T08:33:33.875Z,41.20
2018-11-23T08:34:33.861Z,44.80
2018-11-23T08:35:33.849Z,40.10
2018-11-23T08:36:33.841Z,39.80
2018-11-23T08:37:33.858Z,39.60
2018-11-23T08:38:33.832Z,43.50
2018-11-23T08:39:33.811Z,42.00
2018-11-23T08:40:33.803Z,44.10
2018-11-23T08:41:33.784Z,43.50
2018-11-23T08:42:33.797Z,40.90
2018-11-23T08:43:33.766Z,42.10
2018-11-23T08:44:33.753Z,37.70
2018-11-23T08:45:33.748Z,42.00
2018-11-23T08:46:33.740Z,41.70
2018-11-23T08:47:33.746Z,38.50
2018-11-23T08:48:33.733Z,39.70
2018-11-23T08:49:33.712Z,38.50
2018-11-23T08:50:33.772Z,43.70
2018-11-23T08:51:33.679Z,40.10
2018-11-23T08:52:33.714Z,42.40
2018-11-23T08:53:33.661Z,41.10
2018-11-23T08:54:33.646Z,39.80
2018-11-23T08:55:33.661Z,39.00
2018-11-23T08:56:33.632Z,43.30
2018-11-23T08:57:33.722Z,42.50
2018-11-23T08:58:33.628Z,41.40
2018-11-23T08:59:33.599Z,40.30
2018-11-23T09:00:33.586Z,40.10
2018-11-23T09:01:33.582Z,41.50
2018-11-23T09:02:33.571Z,42.10
2018-11-23T09:03:43.269Z,40.00
2018-11-23T09:04:33.551Z,39.60
2018-11-23T09:05:41.086Z,39.80
2018-11-23T09:06:33.522Z,38.80
2018-11-23T09:07:33.512Z,37.00
2018-11-23T09:08:33.504Z,40.10
2018-11-23T09:09:34.007Z,42.50
2018-11-23T09:10:33.476Z,40.30
2018-11-23T09:11:33.476Z,39.10
2018-11-23T09:12:33.491Z,37.70
2018-11-23T09:13:33.455Z,41.50
2018-11-23T09:14:33.458Z,39.80
2018-11-23T09:15:33.429Z,37.40
2018-11-23T09:16:33.413Z,38.80
2018-11-23T09:17:33.455Z,40.80
2018-11-23T09:18:33.429Z,39.90
2018-11-23T09:19:33.401Z,39.00
2018-11-23T09:20:33.375Z,41.30
2018-11-23T09:21:33.367Z,40.90
2018-11-23T09:22:33.358Z,40.10
2018-11-23T09:23:33.351Z,42.80
2018-11-23T09:24:33.356Z,40.30
2018-11-23T09:25:33.324Z,43.80
2018-11-23T09:26:33.314Z,41.00
2018-11-23T09:27:33.316Z,43.40
2018-11-23T09:28:33.320Z,43.30
2018-11-23T09:29:33.331Z,44.30
2018-11-23T09:30:33.267Z,40.40
2018-11-23T09:31:33.260Z,38.60
2018-11-23T09:32:33.245Z,38.00
2018-11-23T09:33:33.272Z,37.40
2018-11-23T09:34:33.243Z,38.20
2018-11-23T09:35:33.245Z,39.20
2018-11-23T09:36:33.205Z,43.50
2018-11-23T09:37:33.214Z,40.30
2018-11-23T09:38:33.203Z,40.20
2018-11-23T09:39:33.175Z,40.50
2018-11-23T09:40:33.183Z,39.40
2018-11-23T09:41:33.149Z,40.10
2018-11-23T09:42:33.143Z,38.90
2018-11-23T09:43:33.130Z,42.30
2018-11-23T09:44:33.135Z,40.60
2018-11-23T09:45:33.127Z,37.70
2018-11-23T09:46:33.116Z,41.70
2018-11-23T09:47:33.112Z,38.60
2018-11-23T09:48:33.089Z,38.50
2018-11-23T09:49:33.065Z,40.80
2018-11-23T09:50:33.082Z,39.40
2018-11-23T09:51:33.057Z,35.90
2018-11-23T09:52:33.029Z,40.10
2018-11-23T09:53:33.012Z,40.60
2018-11-23T09:54:33.002Z,39.90
2018-11-23T09:55:33.008Z,39.90
2018-11-23T09:56:33.048Z,37.50
2018-11-23T09:57:32.990Z,37.90
2018-11-23T09:58:33.005Z,39.90
2018-11-23T09:59:32.947Z,37.90
2018-11-23T10:00:32.957Z,42.20
2018-11-23T10:01:32.945Z,38.20
2018-11-23T10:02:32.947Z,35.20
2018-11-23T10:03:32.925Z,40.80
2018-11-23T10:04:32.913Z,36.30
2018-11-23T10:05:32.876Z,37.90
2018-11-23T10:06:32.896Z,37.00
2018-11-23T10:07:32.969Z,40.80
2018-11-23T10:08:37.241Z,36.60
2018-11-23T10:09:32.862Z,36.70
2018-11-23T10:10:32.837Z,39.30
2018-11-23T10:11:32.831Z,39.20
2018-11-23T10:12:32.822Z,41.10
2018-11-23T10:13:32.792Z,40.40
2018-11-23T10:14:32.797Z,37.80
2018-11-23T10:15:32.774Z,38.00
2018-11-23T10:16:32.785Z,39.20
2018-11-23T10:17:32.750Z,37.10
2018-11-23T10:18:32.739Z,35.40
2018-11-23T10:19:32.722Z,36.60
2018-11-23T10:20:32.748Z,40.50
2018-11-23T10:21:32.712Z,35.90
2018-11-23T10:22:32.709Z,35.30
2018-11-23T10:23:32.698Z,36.70
2018-11-23T10:24:32.694Z,37.60
2018-11-23T10:25:32.661Z,33.70
2018-11-23T10:26:32.657Z,38.30
2018-11-23T10:27:32.679Z,39.40
2018-11-23T10:28:32.645Z,35.70
2018-11-23T10:29:32.630Z,39.10
2018-11-23T10:30:32.613Z,40.80
2018-11-23T10:31:42.345Z,38.30
2018-11-23T10:32:32.588Z,38.30
2018-11-23T10:33:32.571Z,40.20
2018-11-23T10:34:32.565Z,36.50
2018-11-23T10:35:32.597Z,39.00
2018-11-23T10:36:32.567Z,35.90
2018-11-23T10:37:32.538Z,37.80
2018-11-23T10:38:32.534Z,36.70
2018-11-23T10:39:32.509Z,35.40
2018-11-23T10:40:32.503Z,37.70
2018-11-23T10:41:32.502Z,36.40
2018-11-23T10:42:32.498Z,36.90
2018-11-23T10:43:32.469Z,35.40
2018-11-23T10:44:32.497Z,36.90
2018-11-23T10:45:32.442Z,38.20
2018-11-23T10:46:32.437Z,35.50
2018-11-23T10:47:32.455Z,40.50
2018-11-23T10:48:32.440Z,38.30
2018-11-23T10:49:32.402Z,36.90
2018-11-23T10:50:32.389Z,34.70
2018-11-23T10:51:32.374Z,39.40
2018-11-23T10:52:32.388Z,30.70
2018-11-23T10:53:41.153Z,39.00
2018-11-23T10:54:32.342Z,36.10
2018-11-23T10:55:32.338Z,38.10
2018-11-23T10:56:32.320Z,37.40
2018-11-23T10:57:32.328Z,39.20
2018-11-23T10:58:32.331Z,34.00
2018-11-23T10:59:42.125Z,31.30
2018-11-23T11:00:32.276Z,33.60
2018-11-23T11:01:32.341Z,34.40
2018-11-23T11:02:32.274Z,34.00
2018-11-23T11:03:32.267Z,36.80
2018-11-23T11:04:32.236Z,33.70
2018-11-23T11:05:32.228Z,33.40
2018-11-23T11:06:32.215Z,32.10
2018-11-23T11:07:32.211Z,33.00
2018-11-23T11:08:32.205Z,35.50
2018-11-23T11:09:32.204Z,35.00
2018-11-23T11:10:32.177Z,35.20
2018-11-23T11:11:32.158Z,35.90
2018-11-23T11:12:32.151Z,34.20
2018-11-23T11:13:32.160Z,36.80
2018-11-23T11:14:32.140Z,34.60
2018-11-23T11:15:32.124Z,31.20
2018-11-23T11:16:32.118Z,33.70
2018-11-23T11:17:32.103Z,32.30
2018-11-23T11:18:32.088Z,35.40
2018-11-23T11:19:32.095Z,34.40
2018-11-23T11:20:32.059Z,34.70
2018-11-23T11:21:32.046Z,36.90
2018-11-23T11:22:32.044Z,35.20
2018-11-23T11:23:32.043Z,33.50
2018-11-23T11:24:32.043Z,31.00
2018-11-23T11:25:32.028Z,33.90
2018-11-23T11:26:32.003Z,33.00
2018-11-23T11:27:31.984Z,38.40
2018-11-23T11:28:31.974Z,32.60
2018-11-23T11:29:32.000Z,34.60
2018-11-23T11:30:31.961Z,33.60
2018-11-23T11:31:31.943Z,31.70
2018-11-23T11:32:31.933Z,34.30
2018-11-23T11:33:31.951Z,33.00
2018-11-23T11:34:31.997Z,30.40
2018-11-23T11:35:31.900Z,39.30
2018-11-23T11:36:31.895Z,33.40
2018-11-23T11:37:31.877Z,28.30
2018-11-23T11:38:31.892Z,33.00
2018-11-23T11:39:31.887Z,31.40
2018-11-23T11:40:31.850Z,33.20
2018-11-23T11:41:31.845Z,33.00
2018-11-23T11:42:31.821Z,32.10
2018-11-23T11:43:31.844Z,32.10
2018-11-23T11:44:31.864Z,35.20
2018-11-23T11:45:31.837Z,36.00
2018-11-23T11:46:31.787Z,33.30
2018-11-23T11:47:31.768Z,32.70
2018-11-23T11:48:31.760Z,31.30
2018-11-23T11:49:31.762Z,30.50
2018-11-23T11:50:31.754Z,35.60
2018-11-23T11:51:31.748Z,29.90
2018-11-23T11:52:31.713Z,31.70
2018-11-23T11:53:31.710Z,35.70
2018-11-23T11:54:31.726Z,34.30
2018-11-23T11:55:31.685Z,33.30
2018-11-23T11:56:39.206Z,33.60
2018-11-23T11:57:31.655Z,32.10
2018-11-23T11:58:31.648Z,33.50
2018-11-23T11:59:31.705Z,35.00
2018-11-23T12:00:31.630Z,32.10
2018-11-23T12:01:31.624Z,34.10
2018-11-23T12:02:31.603Z,33.90
2018-11-23T12:03:31.592Z,34.20
2018-11-23T12:04:31.586Z,30.40
2018-11-23T12:05:31.598Z,32.90
2018-11-23T12:06:31.594Z,33.10
2018-11-23T12:07:31.548Z,31.60
2018-11-23T12:08:31.562Z,32.40
2018-11-23T12:09:31.534Z,32.60
2018-11-23T12:10:31.533Z,32.80
2018-11-23T12:11:40.317Z,36.80
2018-11-23T12:12:31.518Z,33.80
2018-11-23T12:13:31.479Z,30.40
2018-11-23T12:14:31.489Z,31.20
2018-11-23T12:15:41.315Z,35.70
2018-11-23T12:16:39.071Z,32.40
2018-11-23T12:17:31.602Z,34.10
2018-11-23T12:18:31.431Z,32.30
2018-11-23T12:19:31.449Z,31.80
2018-11-23T12:20:38.950Z,32.50
2018-11-23T12:21:31.401Z,31.00
2018-11-23T12:22:31.419Z,32.20
2018-11-23T12:23:31.379Z,36.90
2018-11-23T12:24:31.383Z,33.10
2018-11-23T12:25:31.384Z,31.80
2018-11-23T12:26:31.341Z,32.40
2018-11-23T12:27:31.371Z,34.00
2018-11-23T12:28:31.369Z,35.10
2018-11-23T12:29:31.350Z,30.70
2018-11-23T12:30:31.319Z,32.90
2018-11-23T12:31:31.326Z,29.60
2018-11-23T12:32:31.279Z,30.60
2018-11-23T12:33:31.265Z,30.20
2018-11-23T12:34:31.250Z,32.70
2018-11-23T12:35:31.262Z,31.60
2018-11-23T12:36:31.245Z,33.10
2018-11-23T12:37:31.224Z,29.80
2018-11-23T12:38:31.242Z,32.60
2018-11-23T12:39:31.203Z,30.10
2018-11-23T12:40:31.223Z,31.70
2018-11-23T12:41:31.180Z,32.60
2018-11-23T12:42:31.199Z,31.50
2018-11-23T12:43:31.161Z,32.80
2018-11-23T12:44:31.145Z,31.70
2018-11-23T12:45:31.178Z,29.10
2018-11-23T12:46:31.125Z,33.00
2018-11-23T12:47:31.115Z,31.80
2018-11-23T12:48:31.099Z,29.40
2018-11-23T12:49:31.094Z,30.50
2018-11-23T12:50:31.078Z,30.20
2018-11-23T12:51:31.091Z,28.00
2018-11-23T12:52:31.094Z,27.80